createdAt,value
2023-01-17T00:01:13.267Z,19.65
2023-01-17T00:03:58.686Z,18.17
2023-01-17T00:06:44.633Z,18.10
2023-01-17T00:09:30.951Z,17.00
2023-01-17T00:11:58.894Z,16.08
2023-01-17T00:14:27.311Z,16.10
2023-01-17T00:16:54.323Z,16.67
2023-01-17T00:19:39.427Z,15.02
2023-01-17T00:22:29.449Z,14.95
2023-01-17T00:25:14.741Z,14.48
2023-01-17T00:27:41.331Z,14.40
2023-01-17T00:30:08.579Z,13.82
2023-01-17T00:32:35.153Z,14.38
2023-01-17T00:35:01.646Z,13.98
2023-01-17T00:37:28.228Z,13.45
2023-01-17T00:39:54.780Z,14.43
2023-01-17T00:42:21.481Z,13.38
2023-01-17T00:45:06.738Z,14.40
2023-01-17T00:47:53.149Z,11.55
2023-01-17T00:50:38.228Z,13.95
2023-01-17T00:53:24.135Z,11.15
2023-01-17T00:56:08.903Z,12.98
2023-01-17T00:58:54.377Z,16.25
2023-01-17T01:01:39.946Z,13.98
2023-01-17T01:04:25.511Z,14.55
2023-01-17T01:07:10.706Z,16.00
2023-01-17T01:09:56.064Z,15.18
2023-01-17T01:12:41.570Z,14.02
2023-01-17T01:15:27.210Z,13.15
2023-01-17T01:18:12.340Z,14.75
2023-01-17T01:20:57.548Z,11.27
2023-01-17T01:23:42.626Z,13.73
2023-01-17T01:26:27.887Z,13.15
2023-01-17T01:29:12.812Z,12.90
2023-01-17T01:31:58.190Z,11.13
2023-01-17T01:34:24.831Z,13.80
2023-01-17T01:36:51.402Z,13.55
2023-01-17T01:39:18.235Z,15.50
2023-01-17T01:41:44.938Z,12.15
2023-01-17T01:44:47.535Z,12.77
2023-01-17T01:47:18.817Z,13.05
2023-01-17T01:49:45.572Z,8.68
2023-01-17T01:52:12.583Z,10.85
2023-01-17T01:54:47.640Z,15.18
2023-01-17T01:57:18.660Z,13.48
2023-01-17T01:59:54.483Z,13.70
2023-01-17T02:02:21.191Z,12.95
2023-01-17T02:04:48.743Z,13.85
2023-01-17T02:07:26.156Z,14.68
2023-01-17T02:09:53.873Z,15.85
2023-01-17T02:12:21.287Z,12.80
2023-01-17T02:14:47.961Z,15.52
2023-01-17T02:17:38.322Z,14.75
2023-01-17T02:20:35.977Z,15.05
2023-01-17T02:23:22.829Z,13.93
2023-01-17T02:26:23.117Z,14.25
2023-01-17T02:29:01.624Z,14.35
2023-01-17T02:31:35.780Z,14.40
2023-01-17T02:35:00.594Z,13.27
2023-01-17T02:37:40.606Z,14.80
2023-01-17T02:40:43.188Z,13.35
2023-01-17T02:43:15.306Z,14.82
2023-01-17T02:45:42.899Z,13.90
2023-01-17T02:48:13.186Z,13.23
2023-01-17T02:51:04.035Z,16.40
2023-01-17T02:53:36.782Z,13.32
2023-01-17T02:56:16.807Z,15.07
2023-01-17T02:58:58.486Z,14.85
2023-01-17T03:01:25.247Z,14.68
2023-01-17T03:04:15.166Z,14.63
2023-01-17T03:06:48.893Z,14.63
2023-01-17T03:09:17.464Z,15.25
2023-01-17T03:11:44.456Z,15.82
2023-01-17T03:14:11.153Z,14.98
2023-01-17T03:16:38.103Z,15.80
2023-01-17T03:19:04.763Z,14.50
2023-01-17T03:21:31.421Z,15.55
2023-01-17T03:23:58.008Z,13.20
2023-01-17T03:26:24.780Z,14.57
2023-01-17T03:28:51.532Z,13.10
2023-01-17T03:31:20.035Z,13.57
2023-01-17T03:33:46.696Z,15.55
2023-01-17T03:36:13.368Z,16.20
2023-01-17T03:38:40.163Z,16.08
2023-01-17T03:41:07.485Z,11.10
2023-01-17T03:43:34.313Z,14.27
2023-01-17T03:46:06.613Z,12.18
2023-01-17T03:51:00.394Z,14.43
2023-01-17T03:53:27.177Z,15.75
2023-01-17T03:55:54.145Z,15.65
2023-01-17T03:58:20.759Z,13.93
2023-01-17T04:00:47.563Z,13.65
2023-01-17T04:03:14.257Z,14.80
2023-01-17T04:05:40.933Z,16.40
2023-01-17T04:08:07.536Z,14.75
2023-01-17T04:10:34.176Z,14.55
2023-01-17T04:13:00.837Z,14.40
2023-01-17T04:15:27.472Z,15.05
2023-01-17T04:17:54.261Z,13.13
2023-01-17T04:20:41.239Z,14.23
2023-01-17T04:23:08.301Z,14.70
2023-01-17T04:25:35.112Z,12.85
2023-01-17T04:28:03.913Z,13.60
2023-01-17T04:30:32.216Z,14.95
2023-01-17T04:33:00.212Z,15.82
2023-01-17T04:35:29.091Z,15.00
2023-01-17T04:37:55.816Z,15.05
2023-01-17T04:40:22.661Z,13.27
2023-01-17T04:42:49.250Z,13.00
2023-01-17T04:45:16.144Z,11.48
2023-01-17T04:47:42.903Z,12.60
2023-01-17T04:50:12.876Z,15.65
2023-01-17T04:52:39.552Z,13.38
2023-01-17T04:55:06.769Z,13.95
2023-01-17T04:57:33.335Z,12.75
2023-01-17T04:59:59.974Z,14.25
2023-01-17T05:02:26.688Z,13.25
2023-01-17T05:04:53.389Z,13.02
2023-01-17T05:07:19.980Z,14.95
2023-01-17T05:09:47.753Z,12.95
2023-01-17T05:12:14.414Z,13.90
2023-01-17T05:14:41.135Z,14.45
2023-01-17T05:17:07.930Z,13.95
2023-01-17T05:19:34.918Z,14.07
2023-01-17T05:22:04.339Z,13.80
2023-01-17T05:24:32.312Z,18.10
2023-01-17T05:27:03.185Z,26.33
2023-01-17T05:29:30.792Z,18.80
2023-01-17T05:31:57.923Z,13.35
2023-01-17T05:34:25.022Z,11.43
2023-01-17T05:36:52.085Z,12.23
2023-01-17T05:39:18.989Z,10.73
2023-01-17T05:41:45.686Z,17.73
2023-01-17T05:44:12.805Z,12.70
2023-01-17T05:46:39.515Z,10.88
2023-01-17T05:49:06.199Z,10.43
2023-01-17T05:51:33.496Z,10.02
2023-01-17T05:54:00.368Z,11.10
2023-01-17T05:56:26.994Z,10.85
2023-01-17T05:58:53.624Z,9.23
2023-01-17T06:01:20.377Z,10.25
2023-01-17T06:03:47.112Z,12.52
2023-01-17T06:06:13.752Z,13.10
2023-01-17T06:08:40.376Z,14.30
2023-01-17T06:11:06.945Z,12.05
2023-01-17T06:13:33.801Z,12.52
2023-01-17T06:16:04.440Z,13.00
2023-01-17T06:18:32.039Z,14.85
2023-01-17T06:20:58.706Z,12.60
2023-01-17T06:23:25.874Z,8.30
2023-01-17T06:25:52.586Z,12.52
2023-01-17T06:28:21.863Z,12.38
2023-01-17T06:30:49.000Z,13.32
2023-01-17T06:33:15.957Z,14.15
2023-01-17T06:35:53.128Z,13.02
2023-01-17T06:38:20.338Z,12.65
2023-01-17T06:40:47.210Z,12.68
2023-01-17T06:43:13.766Z,12.23
2023-01-17T06:45:40.368Z,11.52
2023-01-17T06:48:07.659Z,14.02
2023-01-17T06:50:34.705Z,12.77
2023-01-17T06:53:03.867Z,16.17
2023-01-17T06:55:33.816Z,14.80
2023-01-17T06:58:02.797Z,14.88
2023-01-17T07:00:31.109Z,14.13
2023-01-17T07:02:58.025Z,9.98
2023-01-17T07:05:25.222Z,12.52
2023-01-17T07:07:52.099Z,9.82
2023-01-17T07:10:18.717Z,12.15
2023-01-17T07:12:45.677Z,11.35
2023-01-17T07:15:12.941Z,9.80
2023-01-17T07:17:39.722Z,10.25
2023-01-17T07:20:07.043Z,10.32
2023-01-17T07:22:34.006Z,10.55
2023-01-17T07:25:00.733Z,10.32
2023-01-17T07:27:30.465Z,7.47
2023-01-17T07:29:58.029Z,10.88
2023-01-17T07:32:26.778Z,12.52
2023-01-17T07:34:54.064Z,18.27
2023-01-17T07:37:21.017Z,14.35
2023-01-17T07:39:47.677Z,13.38
2023-01-17T07:42:14.302Z,16.35
2023-01-17T07:44:44.026Z,13.95
2023-01-17T07:47:11.356Z,16.58
2023-01-17T07:49:38.096Z,18.27
2023-01-17T07:52:07.074Z,15.95
2023-01-17T07:54:33.893Z,12.10
2023-01-17T07:57:01.220Z,13.18
2023-01-17T07:59:27.829Z,6.70
2023-01-17T08:01:54.640Z,8.38
2023-01-17T08:04:21.405Z,7.88
2023-01-17T08:06:50.769Z,9.90
2023-01-17T08:09:17.531Z,6.05
2023-01-17T08:11:44.150Z,8.30
2023-01-17T08:14:10.798Z,11.48
2023-01-17T08:16:38.218Z,9.18
2023-01-17T08:19:04.868Z,2.78
2023-01-17T08:21:31.578Z,1.73
2023-01-17T08:23:58.271Z,1.23
2023-01-17T08:26:25.001Z,1.50
2023-01-17T08:28:57.085Z,1.45
2023-01-17T08:31:24.521Z,1.33
2023-01-17T08:33:51.564Z,1.50
2023-01-17T08:36:18.809Z,1.33
2023-01-17T08:38:45.494Z,1.35
2023-01-17T08:41:13.051Z,1.67
2023-01-17T08:43:39.735Z,1.73
2023-01-17T08:46:06.570Z,1.55
2023-01-17T08:48:33.225Z,1.48
2023-01-17T08:51:03.521Z,1.17
2023-01-17T08:53:30.302Z,1.50
2023-01-17T08:56:01.675Z,1.92
2023-01-17T08:58:30.839Z,2.30
2023-01-17T09:01:05.376Z,1.52
2023-01-17T09:03:33.895Z,1.30
2023-01-17T09:06:09.545Z,1.20
2023-01-17T09:08:36.316Z,1.15
2023-01-17T09:11:07.623Z,1.40
2023-01-17T09:13:34.373Z,1.17
2023-01-17T09:16:01.071Z,1.33
2023-01-17T09:18:28.967Z,1.05
2023-01-17T09:20:57.743Z,2.67
2023-01-17T09:23:25.824Z,1.30
2023-01-17T09:25:57.574Z,1.23
2023-01-17T09:28:25.753Z,0.90
2023-01-17T09:30:53.169Z,1.13
2023-01-17T09:33:20.475Z,1.40
2023-01-17T09:35:47.645Z,1.33
2023-01-17T09:38:14.535Z,1.63
2023-01-17T09:40:46.997Z,1.63
2023-01-17T09:43:41.410Z,1.10
2023-01-17T09:46:22.763Z,1.70
2023-01-17T09:49:02.819Z,1.45
2023-01-17T09:51:29.473Z,1.20
2023-01-17T09:53:56.309Z,1.20
2023-01-17T09:56:30.296Z,2.40
2023-01-17T09:59:38.243Z,0.98
2023-01-17T10:02:26.878Z,1.23
2023-01-17T10:05:52.242Z,1.33
2023-01-17T10:08:50.541Z,1.58
2023-01-17T10:11:33.506Z,1.17
2023-01-17T10:14:18.706Z,1.50
2023-01-17T10:16:57.588Z,0.90
2023-01-17T10:19:58.004Z,2.03
2023-01-17T10:22:43.373Z,1.40
2023-01-17T10:25:42.566Z,0.98
2023-01-17T10:28:23.382Z,1.08
2023-01-17T10:30:52.487Z,1.17
2023-01-17T10:33:23.049Z,1.35
2023-01-17T10:36:03.821Z,1.40
2023-01-17T10:38:38.684Z,1.67
2023-01-17T10:41:17.134Z,1.40
2023-01-17T10:43:59.818Z,0.85
2023-01-17T10:46:32.648Z,1.00
2023-01-17T10:49:01.343Z,0.90
2023-01-17T10:51:43.123Z,1.00
2023-01-17T10:54:44.438Z,1.48
2023-01-17T10:57:17.701Z,1.30
2023-01-17T10:59:44.419Z,1.15
2023-01-17T11:02:30.380Z,1.05
2023-01-17T11:05:02.635Z,1.27
2023-01-17T11:07:29.989Z,2.35
2023-01-17T11:09:58.476Z,1.20
2023-01-17T11:12:34.936Z,1.30
2023-01-17T11:15:06.460Z,1.08
2023-01-17T11:17:36.859Z,1.13
2023-01-17T11:20:09.182Z,1.30
2023-01-17T11:22:36.024Z,1.05
2023-01-17T11:25:02.739Z,1.40
2023-01-17T11:27:33.182Z,1.20
2023-01-17T11:30:16.545Z,1.13
2023-01-17T11:32:53.037Z,1.02
2023-01-17T11:35:21.372Z,1.00
2023-01-17T11:38:03.167Z,1.00
2023-01-17T11:40:35.889Z,0.98
2023-01-17T11:43:23.161Z,1.02
2023-01-17T11:46:15.892Z,0.95
2023-01-17T11:48:56.628Z,1.20
2023-01-17T11:51:26.422Z,1.08
2023-01-17T11:53:55.612Z,0.90
2023-01-17T11:56:28.234Z,1.23
2023-01-17T11:59:07.620Z,0.82
2023-01-17T12:01:43.352Z,2.00
2023-01-17T12:04:10.044Z,1.20
2023-01-17T12:06:57.550Z,1.02
2023-01-17T12:09:33.636Z,0.90
2023-01-17T12:12:29.645Z,0.90
2023-01-17T12:15:23.345Z,1.35
2023-01-17T12:17:55.990Z,0.70
2023-01-17T12:20:34.139Z,1.10
2023-01-17T12:23:26.871Z,0.90
2023-01-17T12:25:59.293Z,0.75
2023-01-17T12:28:46.290Z,0.60
2023-01-17T12:31:20.346Z,0.60
2023-01-17T12:34:16.353Z,0.63
2023-01-17T12:37:08.227Z,0.93
2023-01-17T12:39:42.765Z,0.60
2023-01-17T12:42:14.419Z,0.75
2023-01-17T12:44:47.030Z,0.85
2023-01-17T12:47:15.885Z,1.10
2023-01-17T12:49:54.055Z,1.08
2023-01-17T12:52:42.598Z,0.90
2023-01-17T12:55:17.734Z,0.63
2023-01-17T12:58:18.916Z,1.15
2023-01-17T13:00:49.145Z,0.65
2023-01-17T13:03:20.424Z,0.60
2023-01-17T13:05:48.585Z,0.85
2023-01-17T13:08:34.528Z,1.05
2023-01-17T13:11:07.975Z,0.50
2023-01-17T13:13:36.164Z,1.02
2023-01-17T13:16:16.644Z,0.80
2023-01-17T13:18:48.076Z,0.80
2023-01-17T13:21:35.319Z,1.10
2023-01-17T13:24:22.396Z,0.80
2023-01-17T13:27:15.617Z,1.02
2023-01-17T13:29:54.383Z,0.73
2023-01-17T13:32:49.511Z,0.85
2023-01-17T13:35:33.509Z,0.70
2023-01-17T13:38:09.469Z,0.98
2023-01-17T13:40:49.732Z,0.88
2023-01-17T13:43:30.739Z,0.82
2023-01-17T13:46:01.395Z,0.50
2023-01-17T13:48:31.050Z,0.47
2023-01-17T13:50:59.685Z,0.57
2023-01-17T13:53:29.221Z,0.70
2023-01-17T13:56:22.093Z,0.50
2023-01-17T13:58:54.933Z,0.70
2023-01-17T14:01:24.649Z,0.65
2023-01-17T14:03:51.829Z,0.68
2023-01-17T14:06:37.248Z,0.52
2023-01-17T14:09:13.187Z,3.47
2023-01-17T14:12:05.704Z,2.33
2023-01-17T14:17:23.184Z,0.90
2023-01-17T14:19:55.966Z,1.20
2023-01-17T14:22:29.814Z,1.70
2023-01-17T14:25:09.732Z,1.30
2023-01-17T14:27:42.852Z,1.35
2023-01-17T14:30:33.933Z,0.88
2023-01-17T14:33:04.809Z,0.90
2023-01-17T14:35:34.523Z,0.70
2023-01-17T14:38:05.365Z,0.80
2023-01-17T14:40:38.330Z,1.48
2023-01-17T14:43:15.891Z,1.27
2023-01-17T14:45:43.653Z,0.70
2023-01-17T14:48:18.865Z,0.70
2023-01-17T14:50:50.232Z,0.50
2023-01-17T14:53:20.210Z,0.70
2023-01-17T14:55:56.784Z,0.82
2023-01-17T14:58:27.953Z,0.50
2023-01-17T15:01:10.107Z,1.15
2023-01-17T15:03:49.748Z,2.22
2023-01-17T15:06:34.637Z,0.90
2023-01-17T15:09:01.390Z,0.93
2023-01-17T15:11:32.846Z,0.88
2023-01-17T15:14:06.011Z,2.20
2023-01-17T15:16:36.301Z,0.93
2023-01-17T15:19:11.311Z,0.93
2023-01-17T15:21:42.686Z,0.93
2023-01-17T15:24:21.905Z,1.20
2023-01-17T15:26:49.285Z,1.23
2023-01-17T15:29:28.574Z,1.63
2023-01-17T15:32:00.897Z,1.13
2023-01-17T15:34:37.074Z,1.00
2023-01-17T15:37:08.111Z,1.00
2023-01-17T15:39:37.383Z,0.93
2023-01-17T15:42:19.231Z,1.63
2023-01-17T15:44:48.943Z,1.10
2023-01-17T15:47:38.568Z,1.42
2023-01-17T15:50:27.952Z,1.02
2023-01-17T15:53:01.208Z,0.90
2023-01-17T15:55:30.675Z,1.35
2023-01-17T15:57:57.410Z,1.33
2023-01-17T16:00:38.361Z,2.83
2023-01-17T16:03:36.138Z,1.42
2023-01-17T16:06:04.602Z,1.35
2023-01-17T16:08:39.751Z,1.50
2023-01-17T16:11:08.101Z,2.10
2023-01-17T16:13:43.674Z,2.70
2023-01-17T16:16:15.131Z,1.20
2023-01-17T16:18:42.779Z,1.10
2023-01-17T16:21:28.693Z,1.60
2023-01-17T16:23:56.389Z,1.20
2023-01-17T16:26:24.260Z,1.40
2023-01-17T16:29:03.182Z,1.52
2023-01-17T16:31:30.426Z,1.45
2023-01-17T16:33:57.304Z,1.85
2023-01-17T16:36:24.315Z,1.30
2023-01-17T16:38:52.088Z,1.20
2023-01-17T16:41:19.622Z,2.55
2023-01-17T16:43:48.236Z,1.48
2023-01-17T16:46:15.581Z,2.13
2023-01-17T16:48:43.109Z,4.10
2023-01-17T16:51:09.791Z,4.88
2023-01-17T16:53:37.513Z,8.38
2023-01-17T16:56:12.254Z,8.57
2023-01-17T16:58:39.504Z,12.02
2023-01-17T17:01:17.520Z,10.63
2023-01-17T17:03:44.794Z,12.65
2023-01-17T17:06:12.413Z,12.32
2023-01-17T17:08:39.925Z,9.63
2023-01-17T17:11:24.831Z,9.73
2023-01-17T17:13:52.550Z,10.50
2023-01-17T17:16:21.478Z,10.40
2023-01-17T17:18:55.494Z,9.13
2023-01-17T17:21:22.434Z,10.93
2023-01-17T17:23:54.889Z,9.98
2023-01-17T17:26:21.602Z,8.38
2023-01-17T17:28:52.799Z,9.50
2023-01-17T17:31:19.755Z,9.13
2023-01-17T17:33:46.676Z,10.55
2023-01-17T17:36:13.619Z,10.55
2023-01-17T17:38:50.779Z,14.73
2023-01-17T17:41:23.743Z,13.27
2023-01-17T17:43:52.342Z,12.65
2023-01-17T17:46:20.805Z,11.52
2023-01-17T17:48:48.495Z,12.73
2023-01-17T17:51:29.695Z,10.32
2023-01-17T17:54:00.941Z,10.98
2023-01-17T17:56:29.380Z,12.15
2023-01-17T17:58:57.185Z,23.33
2023-01-17T18:01:24.536Z,9.32
2023-01-17T18:03:52.487Z,10.95
2023-01-17T18:06:20.949Z,8.60
2023-01-17T18:08:48.304Z,10.68
2023-01-17T18:11:19.213Z,10.13
2023-01-17T18:13:50.833Z,13.90
2023-01-17T18:16:24.888Z,11.25
2023-01-17T18:18:54.355Z,9.38
2023-01-17T18:21:25.328Z,13.65
2023-01-17T18:23:55.582Z,9.95
2023-01-17T18:26:26.159Z,8.90
2023-01-17T18:28:54.249Z,9.73
2023-01-17T18:31:24.277Z,11.13
2023-01-17T18:33:52.188Z,9.40
2023-01-17T18:36:19.769Z,9.65
2023-01-17T18:38:48.292Z,8.63
2023-01-17T18:41:18.263Z,9.20
2023-01-17T18:43:45.905Z,5.97
2023-01-17T18:46:13.132Z,9.65
2023-01-17T18:48:40.134Z,10.05
2023-01-17T18:51:09.531Z,7.57
2023-01-17T18:53:37.928Z,6.82
2023-01-17T18:56:07.665Z,8.77
2023-01-17T18:58:42.985Z,9.55
2023-01-17T19:01:36.371Z,8.98
2023-01-17T19:04:04.895Z,7.40
2023-01-17T19:06:38.812Z,22.25
2023-01-17T19:09:08.461Z,6.97
2023-01-17T19:11:36.561Z,6.40
2023-01-17T19:14:06.411Z,6.68
2023-01-17T19:16:37.178Z,5.63
2023-01-17T19:19:07.097Z,4.75
2023-01-17T19:21:34.476Z,5.40
2023-01-17T19:24:01.621Z,6.68
2023-01-17T19:26:30.253Z,5.70
2023-01-17T19:28:59.053Z,5.78
2023-01-17T19:31:28.672Z,7.38
2023-01-17T19:33:57.653Z,5.50
2023-01-17T19:36:27.965Z,5.60
2023-01-17T19:39:04.534Z,6.18
2023-01-17T19:41:33.525Z,3.75
2023-01-17T19:44:03.490Z,3.85
2023-01-17T19:46:30.551Z,2.88
2023-01-17T19:48:58.100Z,2.80
2023-01-17T19:51:26.879Z,2.60
2023-01-17T19:53:54.178Z,2.33
2023-01-17T19:56:24.229Z,1.98
2023-01-17T19:58:52.496Z,1.75
2023-01-17T20:01:23.580Z,2.08
2023-01-17T20:03:51.523Z,1.70
2023-01-17T20:06:24.021Z,1.13
2023-01-17T20:08:51.014Z,0.98
2023-01-17T20:11:20.702Z,1.90
2023-01-17T20:13:49.754Z,0.80
2023-01-17T20:16:17.899Z,1.13
2023-01-17T20:18:44.991Z,0.82
2023-01-17T20:21:15.228Z,1.40
2023-01-17T20:23:43.632Z,0.80
2023-01-17T20:26:12.209Z,0.68
2023-01-17T20:28:41.316Z,0.60
2023-01-17T20:31:17.185Z,1.00
2023-01-17T20:33:45.439Z,0.50
2023-01-17T20:36:14.982Z,1.33
2023-01-17T20:38:45.728Z,0.98
2023-01-17T20:41:18.094Z,0.75
2023-01-17T20:43:47.655Z,0.80
2023-01-17T20:46:15.045Z,0.80
2023-01-17T20:48:49.690Z,0.88
2023-01-17T20:51:17.556Z,0.70
2023-01-17T20:53:46.665Z,0.60
2023-01-17T20:56:16.978Z,0.70
2023-01-17T20:58:44.265Z,0.82
2023-01-17T21:01:13.444Z,1.23
2023-01-17T21:03:40.538Z,0.70
2023-01-17T21:06:11.853Z,0.68
2023-01-17T21:08:40.921Z,0.70
2023-01-17T21:11:09.815Z,1.17
2023-01-17T21:13:37.188Z,0.55
2023-01-17T21:16:04.016Z,0.98
2023-01-17T21:18:32.194Z,12.18
2023-01-17T21:21:08.018Z,1.10
2023-01-17T21:23:38.980Z,0.70
2023-01-17T21:26:07.473Z,1.33
2023-01-17T21:28:37.238Z,1.15
2023-01-17T21:31:24.703Z,0.82
2023-01-17T21:34:00.102Z,0.70
2023-01-17T21:36:32.733Z,0.77
2023-01-17T21:39:04.238Z,0.82
2023-01-17T21:41:33.617Z,1.00
2023-01-17T21:44:03.557Z,1.45
2023-01-17T21:46:30.611Z,0.80
2023-01-17T21:48:57.828Z,0.85
2023-01-17T21:51:45.110Z,0.52
2023-01-17T21:54:11.737Z,1.52
2023-01-17T21:56:56.859Z,1.20
2023-01-17T21:59:24.212Z,0.70
2023-01-17T22:01:50.993Z,1.10
2023-01-17T22:04:17.633Z,0.90
2023-01-17T22:06:44.321Z,0.75
2023-01-17T22:09:10.992Z,0.77
2023-01-17T22:11:37.688Z,0.63
2023-01-17T22:14:05.154Z,0.80
2023-01-17T22:16:32.254Z,0.85
2023-01-17T22:18:59.165Z,1.05
2023-01-17T22:21:31.302Z,1.05
2023-01-17T22:23:59.578Z,0.50
2023-01-17T22:26:31.668Z,1.20
2023-01-17T22:29:02.567Z,0.60
2023-01-17T22:31:29.276Z,1.10
2023-01-17T22:34:01.919Z,0.45
2023-01-17T22:36:29.906Z,0.60
2023-01-17T22:38:56.945Z,0.80
2023-01-17T22:41:27.882Z,0.68
2023-01-17T22:43:58.462Z,0.80
2023-01-17T22:46:27.486Z,0.60
2023-01-17T22:48:55.524Z,0.70
2023-01-17T22:51:24.575Z,0.98
2023-01-17T22:53:53.741Z,1.00
2023-01-17T22:56:29.337Z,0.60
2023-01-17T22:58:57.559Z,0.55
2023-01-17T23:01:29.952Z,1.13
2023-01-17T23:03:58.838Z,0.70
2023-01-17T23:06:37.078Z,0.80
2023-01-17T23:09:17.192Z,0.80
2023-01-17T23:11:47.428Z,1.15
2023-01-17T23:14:22.851Z,0.98
2023-01-17T23:17:10.952Z,1.90
2023-01-17T23:19:42.362Z,0.77
2023-01-17T23:22:21.063Z,0.70
2023-01-17T23:25:08.717Z,0.65
2023-01-17T23:27:59.610Z,0.93
2023-01-17T23:30:36.896Z,0.80
2023-01-17T23:33:08.326Z,1.00
2023-01-17T23:35:41.732Z,0.90
2023-01-17T23:38:29.737Z,0.55
2023-01-17T23:41:22.535Z,0.80
2023-01-17T23:43:53.608Z,0.77
2023-01-17T23:46:20.738Z,0.88
2023-01-17T23:48:48.316Z,0.80
2023-01-17T23:51:15.275Z,0.80
2023-01-17T23:53:42.505Z,0.88
2023-01-17T23:56:27.197Z,1.13
2023-01-17T23:58:53.830Z,0.80
